Time;durP1;ratioP1;P1;durP2;ratioP2;P2;SDS_P1;SDS_P2;PMS_P1;PMS_P2;Temp;Humidity;BMP_temperature;BMP_pressure;BME280_temperature;BME280_humidity;BME280_pressure;Samples;Min_cycle;Max_cycle;Signal;HPM_P1;HPM_P2
2021/03/21 00:01:37;;;;;;;4.60;3.92;;;;;;;4.23;71.02;94387.91;5069977;28;20653;-70
2021/03/21 00:04:02;;;;;;;4.13;3.72;;;;;;;4.34;70.98;94388.34;5071464;28;20267;-71
2021/03/21 00:06:28;;;;;;;4.10;3.67;;;;;;;4.30;70.27;94400.63;5070972;28;20205;-71
2021/03/21 00:08:53;;;;;;;4.63;3.40;;;;;;;4.37;70.43;94398.28;5071272;28;20167;-70
2021/03/21 00:11:19;;;;;;;5.03;3.63;;;;;;;4.34;70.14;94392.84;5071063;28;20221;-70
2021/03/21 00:13:44;;;;;;;4.57;3.80;;;;;;;4.40;70.22;94384.44;5071228;28;20681;-70
2021/03/21 00:16:10;;;;;;;4.33;3.60;;;;;;;4.36;70.67;94388.78;5071202;28;20167;-70
2021/03/21 00:18:37;;;;;;;5.80;3.67;;;;;;;4.36;70.12;94380.09;5069889;28;20657;-70
2021/03/21 00:21:03;;;;;;;4.72;3.50;;;;;;;4.36;70.06;94388.78;5071137;28;20233;-70
2021/03/21 00:23:29;;;;;;;3.90;3.60;;;;;;;4.30;70.54;94394.56;5069790;28;20261;-71
2021/03/21 00:25:54;;;;;;;3.97;3.50;;;;;;;4.36;69.94;94386.16;5071180;28;20194;-71
2021/03/21 00:28:23;;;;;;;5.13;3.37;;;;;;;4.31;70.64;94391.59;5070997;28;20175;-71
2021/03/21 00:30:49;;;;;;;4.22;3.80;;;;;;;4.35;70.07;94378.53;5071371;28;20561;-71
2021/03/21 00:33:16;;;;;;;3.67;3.30;;;;;;;4.20;70.55;94375.31;5070844;28;20202;-71
2021/03/21 00:35:41;;;;;;;3.70;3.28;;;;;;;4.28;70.42;94363.19;5071127;28;20220;-71
2021/03/21 00:38:09;;;;;;;3.53;2.73;;;;;;;4.28;70.81;94347.31;5070704;28;20167;-70
2021/03/21 00:40:35;;;;;;;3.22;2.70;;;;;;;4.24;70.50;94349.06;5069736;28;20332;-71
2021/03/21 00:43:01;;;;;;;4.10;2.50;;;;;;;4.05;71.00;94354.72;5071000;28;20208;-71
2021/03/21 00:45:27;;;;;;;3.17;2.77;;;;;;;4.10;71.29;94357.19;5069124;28;20187;-71
2021/03/21 00:47:53;;;;;;;3.57;3.07;;;;;;;4.16;70.84;94355.94;5071058;28;20169;-70
2021/03/21 00:50:24;;;;;;;2.95;2.30;;;;;;;4.19;70.84;94346.56;5070717;28;20246;-70
2021/03/21 00:52:50;;;;;;;3.10;2.63;;;;;;;4.01;70.72;94356.44;5070619;28;20270;-71
2021/03/21 00:55:16;;;;;;;4.20;3.03;;;;;;;4.02;71.83;94336.06;5070740;28;20214;-70
2021/03/21 00:57:41;;;;;;;3.50;2.83;;;;;;;4.09;71.12;94363.56;5071012;28;20179;-71
2021/03/21 01:00:17;;;;;;;6.73;3.20;;;;;;;4.15;70.90;94356.22;5071648;28;20175;-70
2021/03/21 01:02:43;;;;;;;3.17;2.88;;;;;;;3.99;71.50;94361.28;5073201;28;20223;-70
2021/03/21 01:05:10;;;;;;;2.87;2.57;;;;;;;3.97;71.91;94347.59;5074143;28;20183;-70
2021/03/21 01:07:35;;;;;;;3.00;2.70;;;;;;;3.96;71.67;94346.81;5074358;28;20175;-71
2021/03/21 01:10:01;;;;;;;3.60;2.90;;;;;;;3.80;71.88;94342.34;5074037;28;20236;-70
2021/03/21 01:12:27;;;;;;;2.37;2.17;;;;;;;3.74;72.81;94362.88;5074247;28;22068;-70
2021/03/21 01:14:52;;;;;;;2.23;2.03;;;;;;;3.72;72.80;94336.00;5074100;28;20189;-70
2021/03/21 01:17:17;;;;;;;2.60;2.40;;;;;;;3.59;73.24;94358.88;5074120;28;20536;-69
2021/03/21 01:19:43;;;;;;;3.17;2.77;;;;;;;3.56;73.18;94345.53;5074125;28;20171;-70
2021/03/21 01:22:09;;;;;;;2.30;2.10;;;;;;;3.51;73.49;94325.34;5073723;28;20175;-70
2021/03/21 01:24:34;;;;;;;1.90;1.77;;;;;;;3.43;73.67;94308.44;5074049;28;20206;-70
2021/03/21 01:27:00;;;;;;;1.90;1.70;;;;;;;3.51;73.27;94308.72;5073603;28;20179;-70
2021/03/21 01:29:25;;;;;;;1.90;1.77;;;;;;;3.50;73.56;94329.06;5073895;28;20224;-70
2021/03/21 01:31:51;;;;;;;2.03;1.83;;;;;;;3.49;73.24;94321.47;5073723;28;20175;-69
2021/03/21 01:34:16;;;;;;;2.13;1.63;;;;;;;3.54;73.15;94345.84;5073840;28;20264;-70
2021/03/21 01:36:42;;;;;;;1.93;1.73;;;;;;;3.51;73.32;94357.00;5073552;28;20232;-71
2021/03/21 01:39:23;;;;;;;2.17;1.97;;;;;;;3.44;73.82;94367.28;5073737;28;20232;-69
2021/03/21 01:42:03;;;;;;;1.80;1.70;;;;;;;3.40;73.68;94359.19;5072399;28;20232;-70
2021/03/21 01:44:29;;;;;;;2.13;1.60;;;;;;;3.53;73.52;94352.19;5072287;28;20192;-70
2021/03/21 01:46:54;;;;;;;1.83;1.73;;;;;;;3.52;73.34;94324.25;5073429;28;20261;-70
2021/03/21 01:49:25;;;;;;;1.93;1.80;;;;;;;3.71;73.13;94331.84;5073443;28;20171;-70
2021/03/21 01:51:51;;;;;;;1.95;1.80;;;;;;;3.62;73.24;94336.34;5072022;28;20171;-70
2021/03/21 01:54:17;;;;;;;3.13;2.00;;;;;;;3.43;73.64;94312.94;5072148;28;20700;-70
2021/03/21 01:56:43;;;;;;;2.00;1.88;;;;;;;3.47;73.47;94318.34;5072096;28;20171;-70
2021/03/21 01:59:28;;;;;;;1.50;1.40;;;;;;;3.37;73.77;94304.41;5073433;28;20203;-70
2021/03/21 02:01:56;;;;;;;2.15;1.90;;;;;;;3.38;74.12;94287.47;5071855;28;20186;-71
2021/03/21 02:04:21;;;;;;;1.98;1.77;;;;;;;3.23;74.80;94309.06;5073299;28;20230;-69
2021/03/21 02:07:09;;;;;;;1.97;1.70;;;;;;;3.43;73.75;94297.09;5073035;28;20182;-70
2021/03/21 02:09:53;;;;;;;1.50;1.40;;;;;;;3.35;73.55;94306.56;5072001;28;20171;-70
2021/03/21 02:12:25;;;;;;;1.30;1.20;;;;;;;3.24;74.41;94296.66;5072747;28;20167;-69
2021/03/21 02:15:20;;;;;;;1.45;1.35;;;;;;;3.33;74.04;94300.84;5072847;28;20179;-69
2021/03/21 02:18:00;;;;;;;1.63;1.35;;;;;;;3.21;74.52;94311.25;5056981;28;20266;-69
2021/03/21 02:20:50;;;;;;;1.40;1.30;;;;;;;3.25;74.40;94306.88;5071537;28;20171;-69
2021/03/21 02:24:06;;;;;;;1.67;1.58;;;;;;;3.39;74.02;94291.66;5072898;28;20182;-70
2021/03/21 02:27:19;;;;;;;1.63;1.52;;;;;;;3.31;74.21;94313.59;5050643;28;20644;-70
2021/03/21 02:30:16;;;;;;;1.67;1.58;;;;;;;3.20;74.47;94304.44;4971792;28;20204;-69
2021/03/21 02:33:17;;;;;;;1.65;1.52;;;;;;;3.27;74.23;94293.41;4955421;28;20568;-69
2021/03/21 02:35:45;;;;;;;2.28;1.40;;;;;;;3.36;74.43;94312.63;4920896;29;20187;-69
2021/03/21 02:38:27;;;;;;;1.45;1.30;;;;;;;3.19;74.42;94300.22;4933495;29;20186;-68
2021/03/21 02:41:04;;;;;;;1.33;1.30;;;;;;;3.22;74.58;94312.81;4917331;29;20191;-69
2021/03/21 02:43:41;;;;;;;1.40;1.17;;;;;;;3.19;75.09;94322.09;4917335;29;20192;-68
2021/03/21 02:46:13;;;;;;;1.50;1.40;;;;;;;3.22;74.62;94310.16;4917516;29;20199;-68
2021/03/21 02:48:49;;;;;;;1.70;1.60;;;;;;;3.42;74.13;94312.16;4916982;29;20706;-68
2021/03/21 02:51:19;;;;;;;2.38;1.35;;;;;;;3.28;74.22;94314.19;4917509;29;20274;-68
2021/03/21 02:53:50;;;;;;;1.25;1.15;;;;;;;3.38;74.11;94305.97;4901635;29;20690;-69
2021/03/21 02:56:18;;;;;;;1.48;1.38;;;;;;;3.31;73.70;94318.84;4901709;29;20266;-70
2021/03/21 02:58:48;;;;;;;1.73;1.58;;;;;;;3.45;73.54;94308.13;4901001;29;20195;-70
2021/03/21 03:01:16;;;;;;;1.10;1.10;;;;;;;3.47;73.54;94305.16;4906328;28;20765;-69
2021/03/21 03:03:44;;;;;;;1.23;1.23;;;;;;;3.39;73.98;94302.22;4939026;28;20213;-69
2021/03/21 03:06:12;;;;;;;1.45;1.38;;;;;;;3.51;73.64;94292.88;4949075;28;20194;-70
2021/03/21 03:08:40;;;;;;;1.40;1.30;;;;;;;3.44;73.68;94296.78;4974849;28;20225;-69
2021/03/21 03:11:11;;;;;;;1.60;1.50;;;;;;;3.50;73.55;94307.19;4996989;28;20170;-70
2021/03/21 03:13:42;;;;;;;1.67;1.58;;;;;;;3.33;73.92;94290.28;5070424;28;20248;-70
2021/03/21 03:16:18;;;;;;;1.67;1.58;;;;;;;3.28;73.91;94294.94;5054128;28;20269;-70
2021/03/21 03:19:06;;;;;;;1.60;1.50;;;;;;;3.21;74.48;94300.72;5054398;28;20179;-70
2021/03/21 03:21:58;;;;;;;1.45;1.35;;;;;;;3.22;74.77;94296.19;5055982;28;20173;-69
2021/03/21 03:24:40;;;;;;;2.30;2.10;;;;;;;3.16;74.62;94291.09;5064424;28;20199;-69
2021/03/21 03:27:15;;;;;;;1.80;1.70;;;;;;;3.28;74.49;94287.03;5070275;28;20645;-69
2021/03/21 03:29:43;;;;;;;1.75;1.65;;;;;;;3.28;74.06;94279.88;5070540;28;20261;-69
2021/03/21 03:32:11;;;;;;;1.70;1.60;;;;;;;3.33;74.13;94294.78;5071309;28;20240;-70
2021/03/21 03:34:37;;;;;;;1.85;1.75;;;;;;;3.25;73.88;94280.50;5070451;28;20213;-70
2021/03/21 03:37:03;;;;;;;2.20;2.10;;;;;;;3.24;74.30;94281.59;5056508;28;20262;-70
2021/03/21 03:39:29;;;;;;;2.43;1.90;;;;;;;3.16;74.61;94292.94;5071353;28;20551;-69
2021/03/21 03:41:54;;;;;;;1.80;1.70;;;;;;;3.15;74.52;94302.72;5071632;28;20421;-70
2021/03/21 03:44:22;;;;;;;2.07;1.93;;;;;;;3.28;74.21;94301.00;5071234;28;20170;-69
2021/03/21 03:47:07;;;;;;;1.63;1.52;;;;;;;3.36;73.70;94296.78;5071822;28;20530;-69
2021/03/21 03:49:43;;;;;;;1.70;1.60;;;;;;;3.32;73.82;94294.00;5071649;28;20167;-70
2021/03/21 03:52:23;;;;;;;2.00;1.77;;;;;;;3.40;74.00;94311.69;5080876;28;20263;-69
2021/03/21 03:55:12;;;;;;;1.90;1.80;;;;;;;3.39;73.93;94309.38;5078370;28;20527;-69
2021/03/21 03:57:52;;;;;;;1.65;1.55;;;;;;;3.25;74.49;94317.44;5069398;28;20163;-69
2021/03/21 04:00:31;;;;;;;2.15;2.00;;;;;;;3.32;74.05;94303.81;5053122;28;20698;-69
2021/03/21 04:02:59;;;;;;;1.92;1.83;;;;;;;3.37;73.67;94304.41;5053337;28;20171;-68
2021/03/21 04:05:27;;;;;;;1.70;1.60;;;;;;;3.34;73.91;94305.03;5069816;28;20187;-69
2021/03/21 04:08:03;;;;;;;1.83;1.67;;;;;;;3.41;73.60;94300.03;5069283;28;20177;-69
2021/03/21 04:10:33;;;;;;;1.83;1.70;;;;;;;3.39;73.70;94304.88;5053469;28;20543;-69
2021/03/21 04:13:07;;;;;;;1.80;1.70;;;;;;;3.14;74.61;94305.66;5053303;28;20685;-69
2021/03/21 04:15:41;;;;;;;1.80;1.70;;;;;;;3.13;74.90;94293.56;5079700;28;20684;-68
2021/03/21 04:18:18;;;;;;;1.60;1.50;;;;;;;3.17;74.98;94287.34;5060462;28;20177;-68
2021/03/21 04:20:56;;;;;;;2.05;1.88;;;;;;;3.13;74.85;94293.56;5072716;28;20178;-69
2021/03/21 04:23:46;;;;;;;1.98;1.88;;;;;;;3.21;75.06;94300.72;5054369;28;20269;-68
2021/03/21 04:26:14;;;;;;;1.83;1.65;;;;;;;3.33;74.02;94303.47;5069568;28;20167;-69
2021/03/21 04:28:51;;;;;;;1.95;1.85;;;;;;;3.31;74.27;94310.94;5052875;28;20176;-68
2021/03/21 04:31:16;;;;;;;2.08;1.90;;;;;;;3.27;74.33;94306.59;5063658;28;20260;-68
2021/03/21 04:33:47;;;;;;;2.67;1.73;;;;;;;3.33;74.07;94303.47;5089476;28;20232;-69
2021/03/21 04:36:28;;;;;;;1.90;1.80;;;;;;;3.27;74.37;94301.31;5050554;28;20227;-69
2021/03/21 04:39:02;;;;;;;2.05;1.95;;;;;;;3.42;74.00;94298.97;5053405;28;20212;-70
2021/03/21 04:41:55;;;;;;;2.15;1.75;;;;;;;3.30;73.81;94303.31;5054423;28;20175;-69
2021/03/21 04:44:23;;;;;;;2.42;1.77;;;;;;;3.37;73.96;94299.13;5052905;28;20654;-69
2021/03/21 04:46:53;;;;;;;2.25;1.67;;;;;;;3.30;73.47;94304.09;5036911;28;20207;-69
2021/03/21 04:49:19;;;;;;;1.98;1.88;;;;;;;3.37;73.87;94306.28;5034539;28;20198;-68
2021/03/21 04:51:44;;;;;;;2.20;2.00;;;;;;;3.32;73.93;94306.44;5034176;28;20176;-69
2021/03/21 04:54:18;;;;;;;5.03;1.90;;;;;;;3.37;73.88;94303.63;5016277;28;20196;-69
2021/03/21 04:57:15;;;;;;;2.17;2.05;;;;;;;3.35;74.24;94303.16;5033109;28;20674;-69
2021/03/21 04:59:41;;;;;;;2.20;2.00;;;;;;;3.43;73.40;94289.19;5011897;28;20193;-69
2021/03/21 05:02:11;;;;;;;2.33;2.13;;;;;;;3.31;73.87;94294.31;4979750;28;20185;-69
2021/03/21 05:04:43;;;;;;;2.17;1.98;;;;;;;3.17;74.61;94300.53;5011720;28;20271;-69
2021/03/21 05:07:21;;;;;;;2.00;1.85;;;;;;;3.21;74.54;94305.22;4996532;28;20181;-69
2021/03/21 05:09:47;;;;;;;2.22;1.88;;;;;;;3.37;74.05;94299.13;5011764;28;20181;-69
2021/03/21 05:12:36;;;;;;;2.15;1.95;;;;;;;3.31;74.31;94296.94;5011800;28;20598;-69
2021/03/21 05:15:05;;;;;;;2.25;2.05;;;;;;;3.15;75.05;94294.81;4995160;28;20251;-69
2021/03/21 05:17:39;;;;;;;2.05;1.88;;;;;;;3.13;75.25;94280.38;5011830;28;20634;-69
2021/03/21 05:20:13;;;;;;;2.80;2.35;;;;;;;3.25;74.27;94271.81;4995732;28;20185;-69
2021/03/21 05:22:44;;;;;;;2.42;2.10;;;;;;;3.42;73.68;94272.59;5011581;28;20177;-69
2021/03/21 05:25:27;;;;;;;2.80;2.58;;;;;;;3.47;73.27;94268.97;4995895;28;20184;-68
2021/03/21 05:28:03;;;;;;;2.40;2.20;;;;;;;3.33;73.65;94263.13;4996363;28;20796;-69
2021/03/21 05:30:33;;;;;;;2.17;1.98;;;;;;;3.33;74.08;94277.09;4996159;28;20246;-68
2021/03/21 05:32:58;;;;;;;2.20;2.00;;;;;;;3.32;74.04;94278.19;4995162;28;20679;-68
2021/03/21 05:35:29;;;;;;;2.40;2.20;;;;;;;3.31;74.02;94274.00;4995225;28;20193;-68
2021/03/21 05:38:19;;;;;;;2.60;2.40;;;;;;;3.18;74.26;94291.53;5015980;28;20638;-69
2021/03/21 05:41:22;;;;;;;2.67;2.47;;;;;;;3.33;74.43;94285.00;5033470;28;20176;-70
2021/03/21 05:44:31;;;;;;;2.63;2.42;;;;;;;3.25;74.02;94290.28;5033527;28;20761;-67
2021/03/21 05:47:21;;;;;;;2.47;2.28;;;;;;;3.17;74.59;94297.13;5030725;28;20242;-69
2021/03/21 05:49:51;;;;;;;2.33;2.15;;;;;;;3.19;74.74;94302.88;5031006;28;20175;-69
2021/03/21 05:52:44;;;;;;;2.83;2.60;;;;;;;3.26;74.77;94307.69;5014618;28;20255;-68
2021/03/21 05:55:37;;;;;;;2.55;2.13;;;;;;;3.12;75.33;94295.44;5013555;28;20667;-69
2021/03/21 05:58:05;;;;;;;2.83;2.40;;;;;;;3.19;74.89;94301.00;5030648;28;20222;-69
2021/03/21 06:00:52;;;;;;;2.65;2.45;;;;;;;3.00;75.22;94312.97;5030743;28;20180;-69
2021/03/21 06:03:26;;;;;;;2.40;2.20;;;;;;;3.08;75.06;94310.31;5030678;28;20759;-69
2021/03/21 06:05:57;;;;;;;2.42;2.22;;;;;;;3.25;74.57;94317.44;5030728;28;20654;-69
2021/03/21 06:08:38;;;;;;;3.28;2.10;;;;;;;3.25;74.63;94303.47;5030556;28;20208;-69
2021/03/21 06:11:25;;;;;;;2.40;2.20;;;;;;;3.22;74.33;94302.25;5030798;28;20323;-68
2021/03/21 06:14:19;;;;;;;2.33;2.13;;;;;;;3.29;74.72;94299.91;5030361;28;20262;-69
2021/03/21 06:17:09;;;;;;;2.55;2.10;;;;;;;3.23;74.46;94297.75;5027578;28;20566;-72
2021/03/21 06:19:44;;;;;;;2.92;2.38;;;;;;;3.31;74.29;94299.59;5014158;28;20508;-69
2021/03/21 06:22:56;;;;;;;2.47;2.17;;;;;;;3.42;74.01;94312.16;5014417;28;20199;-70
2021/03/21 06:25:43;;;;;;;3.00;2.35;;;;;;;3.42;73.69;94316.66;5011286;28;20268;-72
2021/03/21 06:28:48;;;;;;;2.30;2.10;;;;;;;3.50;73.27;94325.66;5032572;28;20187;-71
2021/03/21 06:31:32;;;;;;;2.50;2.30;;;;;;;3.48;73.82;94331.25;5017125;28;20179;-72
2021/03/21 06:34:26;;;;;;;4.95;2.60;;;;;;;3.50;73.60;94326.44;5032838;28;20326;-72
2021/03/21 06:37:22;;;;;;;2.70;2.50;;;;;;;3.40;73.59;94330.16;5030021;28;20188;-70
2021/03/21 06:40:30;;;;;;;3.10;2.80;;;;;;;3.31;73.95;94332.06;5031477;28;20168;-72
2021/03/21 06:43:07;;;;;;;3.20;2.28;;;;;;;3.32;74.06;94333.59;5030235;28;20235;-71
2021/03/21 06:45:38;;;;;;;2.67;2.42;;;;;;;3.31;74.15;94329.41;5030384;28;20279;-70
2021/03/21 06:48:04;;;;;;;3.22;2.78;;;;;;;3.30;73.82;94330.47;5035267;28;20191;-71
2021/03/21 06:50:51;;;;;;;4.10;2.57;;;;;;;2.96;74.76;94319.94;5040527;28;20172;-72
2021/03/21 06:53:22;;;;;;;3.10;2.20;;;;;;;3.06;75.26;94324.91;4995767;28;20377;-71
2021/03/21 06:55:55;;;;;;;2.78;2.45;;;;;;;3.24;74.39;94328.31;5028663;28;20179;-73
2021/03/21 06:58:36;;;;;;;2.80;2.55;;;;;;;3.26;74.71;94334.84;5028479;28;20188;-73
2021/03/21 07:01:26;;;;;;;3.10;2.80;;;;;;;3.35;73.83;94321.63;5030009;28;20191;-72
2021/03/21 07:04:16;;;;;;;2.95;2.63;;;;;;;3.30;73.96;94334.97;5029992;28;20177;-71
2021/03/21 07:06:50;;;;;;;3.42;2.58;;;;;;;3.34;73.79;94334.06;5029093;28;20200;-71
2021/03/21 07:09:43;;;;;;;3.80;3.00;;;;;;;3.35;73.65;94319.75;5013039;28;20187;-71
2021/03/21 07:12:24;;;;;;;4.10;3.70;;;;;;;3.32;74.19;94322.28;5029460;28;20285;-72
2021/03/21 07:15:08;;;;;;;3.47;2.55;;;;;;;3.39;73.77;94325.22;5009201;28;20209;-71
2021/03/21 07:17:57;;;;;;;3.05;2.50;;;;;;;3.23;74.20;94327.53;5029562;28;20196;-72
2021/03/21 07:21:06;;;;;;;3.38;2.65;;;;;;;3.18;74.56;94327.69;5031081;28;20189;-71
2021/03/21 07:23:57;;;;;;;3.70;3.08;;;;;;;3.35;73.86;94326.91;5030490;28;20314;-72
2021/03/21 07:26:30;;;;;;;6.53;3.55;;;;;;;3.38;74.12;94327.06;5030469;28;20187;-72
2021/03/21 07:29:02;;;;;;;7.82;3.33;;;;;;;3.44;73.78;94325.81;5030760;28;20561;-72
2021/03/21 07:31:51;;;;;;;3.88;2.88;;;;;;;3.41;73.77;94318.50;5031621;28;20263;-72
2021/03/21 07:34:58;;;;;;;4.68;2.70;;;;;;;3.32;73.79;94311.72;5030634;28;20204;-72
2021/03/21 07:37:28;;;;;;;3.95;2.85;;;;;;;3.33;74.26;94324.59;5029619;28;20180;-72
2021/03/21 07:40:17;;;;;;;3.08;2.58;;;;;;;3.32;73.81;94317.78;5029482;28;20180;-73
2021/03/21 07:43:02;;;;;;;3.20;2.90;;;;;;;3.31;74.52;94320.69;5013145;28;20203;-71
2021/03/21 07:45:58;;;;;;;2.58;1.90;;;;;;;3.29;74.70;94314.97;5012689;28;20670;-72
2021/03/21 07:48:51;;;;;;;2.97;2.15;;;;;;;3.24;74.76;94317.75;5015182;28;20203;-71
2021/03/21 07:51:31;;;;;;;2.67;2.40;;;;;;;3.22;75.01;94320.72;5029418;28;20179;-72
2021/03/21 07:54:28;;;;;;;4.30;2.90;;;;;;;3.24;74.83;94321.19;5029338;28;20640;-72
2021/03/21 07:57:21;;;;;;;3.40;2.80;;;;;;;3.34;74.26;94320.84;5012650;28;20774;-71
2021/03/21 07:59:46;;;;;;;2.60;2.10;;;;;;;3.27;74.78;94302.09;4997711;28;20180;-72
2021/03/21 08:02:13;;;;;;;2.57;2.30;;;;;;;3.28;74.51;94310.78;5011964;28;20243;-72
2021/03/21 08:04:46;;;;;;;2.55;2.35;;;;;;;3.86;83.23;94304.13;5012988;28;20215;-68
2021/03/21 08:07:33;;;;;;;4.57;2.22;;;;;;;4.31;72.27;94306.25;5013213;28;20191;-69
2021/03/21 08:09:59;;;;;;;5.40;2.63;;;;;;;4.01;72.43;94310.75;5033698;28;20183;-70
2021/03/21 08:12:39;;;;;;;3.03;2.40;;;;;;;3.84;72.94;94307.09;5034302;28;20176;-70
2021/03/21 08:15:21;;;;;;;3.38;2.17;;;;;;;3.61;73.44;94295.19;5034089;28;20245;-71
2021/03/21 08:17:55;;;;;;;2.67;2.45;;;;;;;3.59;73.69;94292.88;5034659;28;20195;-71
2021/03/21 08:20:23;;;;;;;4.50;2.65;;;;;;;3.41;73.99;94283.44;5018617;28;20183;-73
2021/03/21 08:22:50;;;;;;;3.92;2.60;;;;;;;3.30;75.21;94269.00;5034261;28;20207;-74
2021/03/21 08:25:23;;;;;;;3.20;2.75;;;;;;;3.31;75.14;94271.38;5034056;28;20173;-74
2021/03/21 08:27:50;;;;;;;3.08;2.75;;;;;;;3.20;75.21;94278.06;5035292;28;20542;-74
2021/03/21 08:30:16;;;;;;;3.60;2.92;;;;;;;3.21;74.84;94258.50;5033752;28;20222;-73
2021/03/21 08:32:52;;;;;;;4.20;3.03;;;;;;;3.39;75.55;94281.13;5033889;28;20177;-72
2021/03/21 08:35:21;;;;;;;3.47;2.60;;;;;;;3.40;74.36;94287.16;5034763;28;20625;-73
2021/03/21 08:37:56;;;;;;;3.53;2.70;;;;;;;3.40;74.56;94271.34;5035326;28;20180;-70
2021/03/21 08:40:30;;;;;;;3.53;3.22;;;;;;;3.24;75.55;94271.03;5018516;28;20186;-70
2021/03/21 08:43:14;;;;;;;4.57;3.25;;;;;;;3.42;74.63;94269.94;5033823;28;20670;-70
2021/03/21 08:45:44;;;;;;;4.22;3.47;;;;;;;3.44;74.72;94262.47;5034704;28;20195;-71
2021/03/21 08:48:32;;;;;;;4.05;3.22;;;;;;;3.29;74.65;94256.91;5017346;28;20231;-69
2021/03/21 08:51:04;;;;;;;3.45;2.80;;;;;;;3.45;74.26;94247.41;5033477;28;20208;-70
2021/03/21 08:53:29;;;;;;;3.92;2.50;;;;;;;3.57;74.59;94257.31;5033826;28;20783;-70
2021/03/21 08:56:29;;;;;;;3.60;2.60;;;;;;;3.51;74.04;94253.28;5034645;28;20184;-69
2021/03/21 08:59:16;;;;;;;4.47;2.78;;;;;;;3.52;74.23;94252.97;5034010;28;20275;-70
2021/03/21 09:01:42;;;;;;;3.53;3.22;;;;;;;3.48;74.40;94251.28;5034183;28;20192;-70
2021/03/21 09:04:11;;;;;;;4.10;3.23;;;;;;;3.43;74.65;94247.72;5015947;28;20669;-73
2021/03/21 09:06:47;;;;;;;5.03;3.70;;;;;;;3.52;74.52;94246.91;5043113;28;20635;-72
2021/03/21 09:09:28;;;;;;;6.22;3.72;;;;;;;3.57;73.45;94238.84;5033972;28;20186;-69
2021/03/21 09:11:58;;;;;;;5.32;3.72;;;;;;;3.67;74.03;94236.63;5043151;28;20256;-75
2021/03/21 09:14:28;;;;;;;6.32;3.83;;;;;;;3.68;73.83;94240.03;5016357;28;20303;-75
2021/03/21 09:17:06;;;;;;;4.70;3.47;;;;;;;3.66;73.10;94237.72;5033506;28;20237;-71
2021/03/21 09:19:34;;;;;;;5.75;3.63;;;;;;;3.69;73.06;94238.94;5033041;28;20171;-72
2021/03/21 09:22:00;;;;;;;4.68;2.97;;;;;;;3.73;72.41;94231.94;5033261;28;20613;-73
2021/03/21 09:24:37;;;;;;;5.07;3.00;;;;;;;3.79;73.35;94238.59;5032905;28;20638;-75
2021/03/21 09:27:19;;;;;;;3.78;2.60;;;;;;;3.76;72.89;94219.97;5033488;28;20276;-72
2021/03/21 09:29:45;;;;;;;6.20;3.63;;;;;;;3.87;72.86;94224.59;5032692;28;20180;-74
2021/03/21 09:32:26;;;;;;;5.43;3.37;;;;;;;3.92;72.90;94213.81;5032444;28;20187;-70
2021/03/21 09:35:17;;;;;;;4.18;3.05;;;;;;;3.95;72.15;94218.47;5032512;28;20232;-72
2021/03/21 09:37:43;;;;;;;3.63;2.83;;;;;;;3.94;71.75;94216.94;5044931;28;20183;-72
2021/03/21 09:40:29;;;;;;;3.10;2.53;;;;;;;4.13;72.51;94213.09;5035841;28;20182;-74
2021/03/21 09:42:55;;;;;;;3.55;2.72;;;;;;;4.30;72.29;94220.16;5052275;28;20202;-73
2021/03/21 09:45:20;;;;;;;3.13;2.47;;;;;;;4.35;72.35;94227.88;5053314;28;20199;-73
2021/03/21 09:48:02;;;;;;;3.40;2.63;;;;;;;4.33;70.44;94233.50;5053411;28;20164;-72
2021/03/21 09:50:51;;;;;;;3.92;2.33;;;;;;;4.33;70.23;94232.72;5048465;28;20204;-71
2021/03/21 09:53:38;;;;;;;2.17;1.97;;;;;;;4.36;69.64;94221.50;5032353;28;20636;-73
2021/03/21 09:56:25;;;;;;;3.78;2.92;;;;;;;4.47;70.30;94218.16;5033558;28;20407;-70
2021/03/21 09:59:14;;;;;;;5.38;2.72;;;;;;;4.40;69.62;94223.19;5032001;28;20177;-72
2021/03/21 10:01:52;;;;;;;5.50;2.58;;;;;;;4.30;69.13;94209.56;5033584;28;20167;-74
2021/03/21 10:04:20;;;;;;;5.55;2.90;;;;;;;4.35;69.00;94215.44;5032136;28;20182;-73
2021/03/21 10:06:45;;;;;;;8.65;4.90;;;;;;;4.15;69.81;94200.31;5032319;28;20538;-75
2021/03/21 10:09:16;;;;;;;9.23;3.33;;;;;;;4.16;69.26;94204.53;5015625;28;20191;-74
2021/03/21 10:11:45;;;;;;;11.70;4.00;;;;;;;4.19;69.48;94201.25;5015790;28;20589;-75
2021/03/21 10:14:25;;;;;;;7.88;4.47;;;;;;;4.24;70.10;94198.41;5015877;28;20216;-74
2021/03/21 10:16:55;;;;;;;5.53;3.08;;;;;;;4.14;70.72;94193.50;5033185;28;20200;-74
2021/03/21 10:19:39;;;;;;;3.80;2.70;;;;;;;4.29;70.09;94195.59;5031832;28;20662;-75
2021/03/21 10:22:17;;;;;;;3.78;2.80;;;;;;;4.22;70.71;94185.53;5033045;28;20176;-72
2021/03/21 10:24:43;;;;;;;4.40;2.67;;;;;;;3.85;70.85;94191.66;5035246;28;20179;-70
2021/03/21 10:27:20;;;;;;;3.30;2.63;;;;;;;4.04;70.66;94201.78;5045525;28;20699;-69
2021/03/21 10:30:07;;;;;;;2.58;2.17;;;;;;;4.01;70.00;94200.56;5032469;28;20661;-69
2021/03/21 10:32:33;;;;;;;1.85;1.75;;;;;;;4.04;69.91;94193.88;5045622;28;20215;-69
2021/03/21 10:34:59;;;;;;;6.50;1.87;;;;;;;4.06;70.58;94197.75;5034448;28;20680;-69
2021/03/21 10:37:53;;;;;;;2.97;2.43;;;;;;;4.04;70.27;94199.16;5052229;28;20172;-69
2021/03/21 10:40:28;;;;;;;4.00;2.60;;;;;;;4.14;71.37;94185.56;5043294;28;20434;-71
2021/03/21 10:43:18;;;;;;;3.30;2.65;;;;;;;4.23;70.54;94176.50;5032016;28;20180;-70
2021/03/21 10:45:43;;;;;;;3.30;2.35;;;;;;;4.25;69.48;94187.50;5030975;28;20180;-69
2021/03/21 10:48:11;;;;;;;2.33;2.13;;;;;;;4.13;69.71;94181.38;5032232;28;20230;-70
2021/03/21 10:51:06;;;;;;;2.28;2.08;;;;;;;4.02;69.87;94183.63;5027818;28;20184;-73
2021/03/21 10:53:39;;;;;;;5.07;2.38;;;;;;;4.08;70.29;94171.00;5030608;28;20994;-71
2021/03/21 10:56:19;;;;;;;2.35;1.88;;;;;;;4.15;70.13;94150.94;5030642;28;20199;-71
2021/03/21 10:59:22;;;;;;;2.22;1.98;;;;;;;4.23;70.01;94160.66;5050852;28;20660;-70
2021/03/21 11:01:47;;;;;;;1.80;1.60;;;;;;;4.17;70.43;94169.88;5035327;28;20241;-72
2021/03/21 11:04:22;;;;;;;2.17;1.97;;;;;;;3.96;69.47;94156.63;5030370;28;20172;-72
2021/03/21 11:06:52;;;;;;;3.72;1.83;;;;;;;4.06;69.45;94163.41;5014839;28;20627;-70
2021/03/21 11:09:18;;;;;;;2.53;1.83;;;;;;;4.11;69.05;94159.81;5031555;28;20696;-70
2021/03/21 11:11:45;;;;;;;2.83;2.20;;;;;;;4.03;68.53;94153.47;5030202;28;20187;-71
2021/03/21 11:14:17;;;;;;;3.70;2.00;;;;;;;4.01;68.56;94162.81;5031365;28;20228;-72
2021/03/21 11:16:51;;;;;;;2.25;1.83;;;;;;;4.09;68.71;94149.53;5031657;28;20429;-69
2021/03/21 11:19:17;;;;;;;2.97;2.30;;;;;;;4.06;69.93;94144.16;5031119;28;20428;-69
2021/03/21 11:21:44;;;;;;;3.30;2.57;;;;;;;4.14;70.44;94152.00;5013759;28;20254;-70
2021/03/21 11:24:25;;;;;;;5.13;2.03;;;;;;;4.31;69.95;94143.16;5030221;28;20196;-70
2021/03/21 11:26:51;;;;;;;3.38;2.10;;;;;;;4.44;69.84;94144.78;5015101;28;20172;-69
2021/03/21 11:29:24;;;;;;;4.07;2.77;;;;;;;4.51;69.45;94136.34;5030306;28;20631;-72
2021/03/21 11:31:53;;;;;;;3.42;2.60;;;;;;;4.48;69.75;94136.97;5029862;28;20191;-72
2021/03/21 11:34:19;;;;;;;4.07;2.50;;;;;;;4.47;69.87;94136.19;5031016;28;20277;-70
2021/03/21 11:36:58;;;;;;;2.78;2.20;;;;;;;4.30;69.75;94133.69;5031637;28;20208;-71
2021/03/21 11:39:39;;;;;;;3.28;2.17;;;;;;;4.36;71.65;94124.47;5031045;28;20187;-70
2021/03/21 11:42:16;;;;;;;2.92;2.30;;;;;;;4.45;70.31;94121.78;5029647;28;20215;-70
2021/03/21 11:44:42;;;;;;;3.22;1.70;;;;;;;4.34;70.33;94113.47;5030665;28;20211;-70
2021/03/21 11:47:25;;;;;;;2.00;1.80;;;;;;;4.42;71.19;94107.31;5031248;28;20165;-72
2021/03/21 11:49:51;;;;;;;3.08;2.17;;;;;;;4.53;70.37;94104.28;5031248;28;20234;-71
2021/03/21 11:52:17;;;;;;;3.80;2.37;;;;;;;4.51;71.08;94104.59;5029635;28;20298;-73
2021/03/21 11:54:44;;;;;;;2.70;2.35;;;;;;;4.47;70.27;94090.50;5013405;28;20219;-73
2021/03/21 11:57:18;;;;;;;4.95;2.60;;;;;;;4.51;70.80;94102.75;5030136;28;20188;-71
2021/03/21 11:59:47;;;;;;;3.77;2.50;;;;;;;4.56;70.58;94093.06;5030953;28;20264;-73
2021/03/21 12:02:45;;;;;;;2.83;2.30;;;;;;;4.59;70.75;94092.41;5013817;28;21095;-69
2021/03/21 12:05:22;;;;;;;3.17;2.50;;;;;;;4.65;71.27;94088.44;5023753;28;20435;-69
2021/03/21 12:07:47;;;;;;;3.45;2.25;;;;;;;4.74;70.90;94078.56;5014445;28;20426;-70
2021/03/21 12:10:27;;;;;;;3.77;2.20;;;;;;;4.89;70.66;94082.47;5031285;28;20183;-70
2021/03/21 12:12:52;;;;;;;3.78;2.70;;;;;;;5.10;71.15;94071.78;5029310;28;20278;-73
2021/03/21 12:15:24;;;;;;;2.50;2.23;;;;;;;5.29;69.44;94061.44;5013155;28;20249;-71
2021/03/21 12:18:19;;;;;;;2.87;2.40;;;;;;;5.46;69.60;94071.03;5030800;28;20176;-70
2021/03/21 12:20:46;;;;;;;3.67;2.15;;;;;;;5.29;68.24;94043.69;5031217;28;20419;-72
2021/03/21 12:23:27;;;;;;;5.13;2.20;;;;;;;5.53;68.45;94042.13;5029570;28;20651;-74